createdAt,value
2022-09-16T00:01:01.013Z,99864.69
2022-09-16T00:03:28.900Z,99860.94
2022-09-16T00:05:56.809Z,99867.63
2022-09-16T00:08:24.603Z,99863.63
2022-09-16T00:10:52.734Z,99872.03
2022-09-16T00:13:21.774Z,99869.63
2022-09-16T00:15:51.907Z,99874.50
2022-09-16T00:18:20.410Z,99878.81
2022-09-16T00:20:50.172Z,99853.25
2022-09-16T00:23:18.654Z,99862.94
2022-09-16T00:25:46.351Z,99860.47
2022-09-16T00:28:14.107Z,99878.06
2022-09-16T00:30:43.166Z,99875.97
2022-09-16T00:33:11.371Z,99868.28
2022-09-16T00:35:39.064Z,99810.41
2022-09-16T00:38:07.494Z,99769.25
2022-09-16T00:40:35.490Z,99732.22
2022-09-16T00:43:03.213Z,99728.81
2022-09-16T00:45:32.018Z,99706.22
2022-09-16T00:48:04.680Z,99683.22
2022-09-16T00:50:38.953Z,99676.88
2022-09-16T00:53:08.545Z,99678.16
2022-09-16T00:55:39.387Z,99674.69
2022-09-16T00:58:15.244Z,99676.16
2022-09-16T01:00:43.970Z,99679.16
2022-09-16T01:03:13.117Z,99687.69
2022-09-16T01:05:41.419Z,99696.56
2022-09-16T01:08:09.102Z,99705.06
2022-09-16T01:10:37.023Z,99712.84
2022-09-16T01:13:08.523Z,99727.13
2022-09-16T01:15:45.049Z,99751.72
2022-09-16T01:18:24.212Z,99757.97
2022-09-16T01:21:31.378Z,99764.00
2022-09-16T01:24:49.711Z,99797.84
2022-09-16T01:28:04.418Z,99811.06
2022-09-16T01:33:34.969Z,99850.97
2022-09-16T01:36:21.436Z,99867.19
2022-09-16T01:39:08.954Z,99892.31
2022-09-16T01:41:46.206Z,99878.72
2022-09-16T01:44:22.142Z,99906.19
2022-09-16T01:46:55.611Z,99888.25
2022-09-16T01:49:37.446Z,99901.81
2022-09-16T01:52:16.101Z,99920.28
2022-09-16T01:54:49.168Z,99911.97
2022-09-16T01:57:21.119Z,99912.78
2022-09-16T01:59:55.247Z,99901.13
2022-09-16T02:02:28.297Z,99868.94
2022-09-16T02:05:00.970Z,99873.28
2022-09-16T02:07:32.935Z,99884.91
2022-09-16T02:10:11.294Z,99871.44
2022-09-16T02:12:44.164Z,99867.97
2022-09-16T02:15:18.782Z,99882.97
2022-09-16T02:17:52.047Z,99866.75
2022-09-16T02:20:25.855Z,99861.59
2022-09-16T02:22:59.502Z,99848.59
2022-09-16T02:25:28.645Z,99850.31
2022-09-16T02:27:58.693Z,99833.03
2022-09-16T02:30:26.510Z,99819.34
2022-09-16T02:32:58.003Z,99818.91
2022-09-16T02:35:29.341Z,99811.47
2022-09-16T02:38:00.309Z,99832.28
2022-09-16T02:40:33.454Z,99865.00
2022-09-16T02:43:01.810Z,99838.69
2022-09-16T02:45:43.778Z,99857.34
2022-09-16T02:48:16.195Z,99844.63
2022-09-16T02:50:53.066Z,99867.31
2022-09-16T02:53:28.772Z,99855.81
2022-09-16T02:56:02.028Z,99846.56
2022-09-16T02:58:30.828Z,99852.31
2022-09-16T03:00:59.390Z,99868.72
2022-09-16T03:03:27.256Z,99852.63
2022-09-16T03:06:16.295Z,99861.31
2022-09-16T03:08:45.338Z,99866.34
2022-09-16T03:11:29.379Z,99859.56
2022-09-16T03:14:13.469Z,99848.56
2022-09-16T03:16:52.386Z,99840.25
2022-09-16T03:19:27.016Z,99849.63
2022-09-16T03:22:04.400Z,99877.66
2022-09-16T03:24:44.011Z,99881.75
2022-09-16T03:27:17.298Z,99887.53
2022-09-16T03:29:50.637Z,99892.75
2022-09-16T03:32:22.940Z,99906.78
2022-09-16T03:34:54.238Z,99900.97
2022-09-16T03:37:27.994Z,99896.31
2022-09-16T03:39:58.820Z,99899.19
2022-09-16T03:42:26.901Z,99903.19
2022-09-16T03:44:54.592Z,99915.56
2022-09-16T03:47:22.328Z,99918.41
2022-09-16T03:49:50.819Z,99920.34
2022-09-16T03:52:19.126Z,99911.69
2022-09-16T03:54:48.168Z,99908.63
2022-09-16T03:57:15.856Z,99906.44
2022-09-16T03:59:43.550Z,99909.09
2022-09-16T04:02:11.313Z,99906.13
2022-09-16T04:04:39.233Z,99887.06
2022-09-16T04:07:06.936Z,99890.22
2022-09-16T04:09:34.635Z,99880.94
2022-09-16T04:12:05.505Z,99883.75
2022-09-16T04:14:33.172Z,99865.25
2022-09-16T04:17:01.252Z,99846.22
2022-09-16T04:19:29.133Z,99825.34
2022-09-16T04:21:56.813Z,99812.81
2022-09-16T04:24:24.480Z,99824.66
2022-09-16T04:26:52.218Z,99829.66
2022-09-16T04:29:21.283Z,99811.06
2022-09-16T04:31:48.962Z,99824.41
2022-09-16T04:34:16.690Z,99814.56
2022-09-16T04:36:44.394Z,99825.53
2022-09-16T04:39:12.255Z,99838.16
2022-09-16T04:41:40.356Z,99863.03
2022-09-16T04:44:08.111Z,99872.09
2022-09-16T04:46:37.224Z,99882.75
2022-09-16T04:49:05.262Z,99863.47
2022-09-16T04:51:33.197Z,99877.44
2022-09-16T04:54:01.841Z,99876.22
2022-09-16T04:56:31.490Z,99889.81
2022-09-16T04:59:02.219Z,99879.91
2022-09-16T05:01:32.405Z,99878.19
2022-09-16T05:04:03.255Z,99879.59
2022-09-16T05:06:33.282Z,99883.22
2022-09-16T05:09:01.877Z,99868.06
2022-09-16T05:11:31.640Z,99881.03
2022-09-16T05:14:00.796Z,99856.53
2022-09-16T05:16:28.961Z,99860.44
2022-09-16T05:18:58.398Z,99872.09
2022-09-16T05:21:29.092Z,99841.34
2022-09-16T05:24:01.364Z,99846.22
2022-09-16T05:26:31.498Z,99849.56
2022-09-16T05:29:02.357Z,99843.88
2022-09-16T05:31:31.972Z,99834.94
2022-09-16T05:34:01.759Z,99820.66
2022-09-16T05:36:32.701Z,99823.88
2022-09-16T05:41:48.723Z,99820.25
2022-09-16T05:44:16.696Z,99818.50
2022-09-16T05:46:44.560Z,99815.25
2022-09-16T05:49:12.796Z,99802.03
2022-09-16T05:51:42.447Z,99789.41
2022-09-16T05:54:10.567Z,99780.63
2022-09-16T05:56:38.281Z,99766.94
2022-09-16T05:59:06.799Z,99786.25
2022-09-16T06:01:37.184Z,99756.97
2022-09-16T06:04:07.181Z,99768.56
2022-09-16T06:06:36.348Z,99751.22
2022-09-16T06:09:08.940Z,99744.16
2022-09-16T06:11:38.348Z,99739.28
2022-09-16T06:14:07.050Z,99734.44
2022-09-16T06:16:35.483Z,99731.41
2022-09-16T06:19:05.482Z,99715.16
2022-09-16T06:21:33.215Z,99728.97
2022-09-16T06:24:00.963Z,99702.31
2022-09-16T06:26:30.044Z,99700.31
2022-09-16T06:28:58.100Z,99692.81
2022-09-16T06:31:28.322Z,99673.72
2022-09-16T06:33:57.024Z,99684.13
2022-09-16T06:36:27.254Z,99643.19
2022-09-16T06:38:54.974Z,99634.34
2022-09-16T06:41:23.484Z,99632.03
2022-09-16T06:43:53.262Z,99660.13
2022-09-16T06:46:22.980Z,99649.31
2022-09-16T06:48:52.263Z,99643.16
2022-09-16T06:51:22.827Z,99637.16
2022-09-16T06:53:51.570Z,99637.38
2022-09-16T06:56:22.017Z,99666.38
2022-09-16T06:58:53.058Z,99621.09
2022-09-16T07:01:22.256Z,99615.28
2022-09-16T07:03:51.944Z,99600.97
2022-09-16T07:06:21.209Z,99602.53
2022-09-16T07:08:49.217Z,99593.66
2022-09-16T07:11:18.604Z,99574.94
2022-09-16T07:13:48.086Z,99595.09
2022-09-16T07:16:19.942Z,99573.19
2022-09-16T07:18:48.355Z,99555.22
2022-09-16T07:21:18.516Z,99551.69
2022-09-16T07:23:47.395Z,99537.41
2022-09-16T07:26:17.212Z,99536.84
2022-09-16T07:28:47.315Z,99548.97
2022-09-16T07:31:18.365Z,99527.78
2022-09-16T07:33:48.549Z,99555.41
2022-09-16T07:36:18.392Z,99557.88
2022-09-16T07:38:46.433Z,99582.69
2022-09-16T07:41:16.123Z,99563.41
2022-09-16T07:43:44.606Z,99570.22
2022-09-16T07:46:16.661Z,99571.78
2022-09-16T07:48:47.158Z,99593.78
2022-09-16T07:51:17.543Z,99602.63
2022-09-16T07:53:46.079Z,99610.50
2022-09-16T07:56:15.734Z,99638.13
2022-09-16T07:58:44.892Z,99624.03
2022-09-16T08:01:13.635Z,99652.03
2022-09-16T08:03:41.821Z,99658.59
2022-09-16T08:06:14.224Z,99671.66
2022-09-16T08:08:42.352Z,99696.06
2022-09-16T08:11:10.382Z,99718.00
2022-09-16T08:13:38.503Z,99722.00
2022-09-16T08:16:09.282Z,99721.44
2022-09-16T08:18:37.070Z,99696.63
2022-09-16T08:21:08.094Z,99721.84
2022-09-16T08:23:38.406Z,99719.53
2022-09-16T08:26:08.394Z,99736.28
2022-09-16T08:28:45.438Z,99759.44
2022-09-16T08:31:25.368Z,99785.50
2022-09-16T08:33:53.150Z,99757.47
2022-09-16T08:36:22.781Z,99740.38
2022-09-16T08:38:53.515Z,99769.38
2022-09-16T08:41:32.982Z,99759.63
2022-09-16T08:44:13.157Z,99770.09
2022-09-16T08:46:48.399Z,99777.09
2022-09-16T08:49:22.640Z,99832.06
2022-09-16T08:51:50.841Z,99788.59
2022-09-16T08:54:29.463Z,99842.03
2022-09-16T08:57:01.704Z,99868.16
2022-09-16T08:59:35.521Z,99847.88
2022-09-16T09:02:22.866Z,99842.13
2022-09-16T09:04:51.104Z,99862.50
2022-09-16T09:07:27.850Z,99895.00
2022-09-16T09:10:19.267Z,99890.38
2022-09-16T09:12:53.361Z,99907.28
2022-09-16T09:15:35.276Z,99906.84
2022-09-16T09:18:18.687Z,99914.88
2022-09-16T09:21:05.060Z,99893.84
2022-09-16T09:23:51.149Z,99897.66
2022-09-16T09:26:23.078Z,99900.13
2022-09-16T09:29:05.153Z,99934.22
2022-09-16T09:31:44.886Z,99930.06
2022-09-16T09:34:25.634Z,99930.28
2022-09-16T09:37:06.705Z,99905.03
2022-09-16T09:39:48.729Z,99912.78
2022-09-16T09:42:24.836Z,99915.09
2022-09-16T09:45:01.481Z,99926.03
2022-09-16T09:47:35.104Z,99930.22
2022-09-16T09:50:14.123Z,99932.25
2022-09-16T09:52:46.818Z,99920.94
2022-09-16T09:55:18.203Z,99929.28
2022-09-16T09:58:03.572Z,99937.84
2022-09-16T10:00:31.220Z,99934.59
2022-09-16T10:03:05.556Z,99930.69
2022-09-16T10:05:33.467Z,99939.00
2022-09-16T10:08:05.914Z,99990.88
2022-09-16T10:10:35.963Z,99949.88
2022-09-16T10:13:13.018Z,99934.53
2022-09-16T10:15:41.538Z,99957.25
2022-09-16T10:18:14.322Z,99936.41
2022-09-16T10:20:45.465Z,99970.78
2022-09-16T10:23:15.274Z,99960.47
2022-09-16T10:25:44.461Z,99976.53
2022-09-16T10:28:24.901Z,99991.16
2022-09-16T10:30:54.727Z,99968.06
2022-09-16T10:33:26.283Z,99959.03
2022-09-16T10:35:57.984Z,99958.28
2022-09-16T10:38:34.977Z,99984.88
2022-09-16T10:41:08.311Z,99979.56
2022-09-16T10:43:40.467Z,99994.78
2022-09-16T10:46:09.056Z,99995.38
2022-09-16T10:48:37.668Z,100014.81
2022-09-16T10:51:07.278Z,100012.25
2022-09-16T10:53:39.272Z,99986.00
2022-09-16T10:56:18.598Z,99983.81
2022-09-16T10:58:47.881Z,99996.97
2022-09-16T11:01:32.258Z,99970.75
2022-09-16T11:04:24.834Z,99967.47
2022-09-16T11:07:03.132Z,99988.22
2022-09-16T11:09:36.152Z,99953.34
2022-09-16T11:12:24.423Z,99927.75
2022-09-16T11:15:02.514Z,99937.34
2022-09-16T11:17:46.417Z,99932.66
2022-09-16T11:20:45.420Z,99998.31
2022-09-16T11:23:26.670Z,99956.97
2022-09-16T11:26:00.650Z,99960.22
2022-09-16T11:29:07.385Z,99987.63
2022-09-16T11:31:44.703Z,99969.63
2022-09-16T11:34:24.467Z,99979.03
2022-09-16T11:37:02.304Z,99965.34
2022-09-16T11:39:45.789Z,100013.59
2022-09-16T11:42:20.587Z,99975.06
2022-09-16T11:44:54.141Z,99975.94
2022-09-16T11:47:46.243Z,99979.22
2022-09-16T11:50:30.600Z,99986.59
2022-09-16T11:53:25.879Z,99954.16
2022-09-16T11:56:00.005Z,99953.06
2022-09-16T11:58:36.364Z,99942.59
2022-09-16T12:01:11.521Z,99954.53
2022-09-16T12:03:46.931Z,99934.41
2022-09-16T12:06:18.680Z,99959.22
2022-09-16T12:08:55.741Z,99959.41
2022-09-16T12:11:32.881Z,99940.28
2022-09-16T12:14:09.386Z,99948.34
2022-09-16T12:16:42.915Z,99923.69
2022-09-16T12:19:19.394Z,99901.66
2022-09-16T12:21:57.641Z,99918.81
2022-09-16T12:24:32.018Z,99924.06
2022-09-16T12:27:05.925Z,99929.13
2022-09-16T12:29:42.091Z,99935.16
2022-09-16T12:32:15.293Z,99936.72
2022-09-16T12:34:50.323Z,99909.97
2022-09-16T12:37:30.931Z,99897.88
2022-09-16T12:39:58.720Z,99908.13
2022-09-16T12:42:54.837Z,99917.13
2022-09-16T12:45:54.934Z,99934.63
2022-09-16T12:48:40.906Z,99915.56
2022-09-16T12:51:26.580Z,99918.63
2022-09-16T12:54:13.513Z,99933.66
2022-09-16T12:57:08.307Z,99911.44
2022-09-16T12:59:57.553Z,99898.72
2022-09-16T13:02:31.529Z,99917.81
2022-09-16T13:05:15.426Z,99899.59
2022-09-16T13:07:48.927Z,99917.53
2022-09-16T13:10:26.407Z,99912.81
2022-09-16T13:13:05.401Z,99902.78
2022-09-16T13:15:35.242Z,99920.53
2022-09-16T13:18:11.470Z,99914.53
2022-09-16T13:20:42.805Z,99928.50
2022-09-16T13:23:19.175Z,99940.28
2022-09-16T13:25:51.537Z,99917.38
2022-09-16T13:28:36.125Z,99917.69
2022-09-16T13:31:18.822Z,99892.91
2022-09-16T13:33:48.151Z,99911.84
2022-09-16T13:36:30.871Z,99901.22
2022-09-16T13:39:01.961Z,99900.38
2022-09-16T13:41:32.751Z,99923.41
2022-09-16T13:44:00.932Z,99905.63
2022-09-16T13:46:34.711Z,99926.78
2022-09-16T13:49:22.006Z,99909.94
2022-09-16T13:51:51.587Z,99906.41
2022-09-16T13:54:26.691Z,99915.91
2022-09-16T13:57:12.637Z,99913.53
2022-09-16T14:02:40.412Z,99896.28
2022-09-16T14:05:33.591Z,99907.47
2022-09-16T14:08:11.975Z,99909.28
2022-09-16T14:10:50.806Z,99915.56
2022-09-16T14:13:22.288Z,99903.91
2022-09-16T14:15:53.245Z,99916.19
2022-09-16T14:18:25.404Z,99899.50
2022-09-16T14:21:01.192Z,99892.50
2022-09-16T14:23:31.366Z,99893.56
2022-09-16T14:26:11.570Z,99880.47
2022-09-16T14:28:39.562Z,99882.25
2022-09-16T14:31:09.904Z,99891.47
2022-09-16T14:33:45.063Z,99874.38
2022-09-16T14:36:16.137Z,99884.72
2022-09-16T14:38:50.574Z,99876.28
2022-09-16T14:41:27.438Z,99889.72
2022-09-16T14:43:57.442Z,99882.69
2022-09-16T14:46:25.376Z,99888.09
2022-09-16T14:48:53.128Z,99886.31
2022-09-16T14:51:24.388Z,99884.03
2022-09-16T14:54:11.596Z,99889.44
2022-09-16T14:56:41.626Z,99903.13
2022-09-16T14:59:12.537Z,99909.44
2022-09-16T15:01:41.487Z,99895.44
2022-09-16T15:04:16.386Z,99903.03
2022-09-16T15:06:48.623Z,99910.53
2022-09-16T15:09:20.822Z,99913.81
2022-09-16T15:11:54.332Z,99919.63
2022-09-16T15:14:22.722Z,99913.50
2022-09-16T15:16:54.071Z,99907.47
2022-09-16T15:19:24.960Z,99903.06
2022-09-16T15:21:53.741Z,99933.59
2022-09-16T15:24:24.860Z,99917.88
2022-09-16T15:26:54.540Z,99902.25
2022-09-16T15:29:32.005Z,99876.53
2022-09-16T15:32:19.463Z,99878.75
2022-09-16T15:34:47.821Z,99871.41
2022-09-16T15:37:30.926Z,99862.53
2022-09-16T15:40:09.836Z,99862.13
2022-09-16T15:42:39.098Z,99860.28
2022-09-16T15:45:18.332Z,99854.19
2022-09-16T15:47:57.865Z,99850.34
2022-09-16T15:50:26.950Z,99838.63
2022-09-16T15:53:00.335Z,99832.50
2022-09-16T15:55:33.612Z,99832.75
2022-09-16T15:58:07.133Z,99811.59
2022-09-16T16:01:00.604Z,99799.69
2022-09-16T16:03:32.758Z,99788.63
2022-09-16T16:06:00.563Z,99770.34
2022-09-16T16:08:45.285Z,99756.72
2022-09-16T16:11:15.062Z,99756.97
2022-09-16T16:13:44.305Z,99755.31
2022-09-16T16:16:14.336Z,99756.97
2022-09-16T16:18:43.760Z,99753.75
2022-09-16T16:21:15.007Z,99726.63
2022-09-16T16:23:43.678Z,99713.31
2022-09-16T16:26:12.639Z,99706.59
2022-09-16T16:28:40.322Z,99696.44
2022-09-16T16:31:17.366Z,99697.84
2022-09-16T16:33:47.624Z,99704.69
2022-09-16T16:36:17.764Z,99691.41
2022-09-16T16:38:46.452Z,99693.25
2022-09-16T16:41:14.369Z,99691.47
2022-09-16T16:43:42.142Z,99700.53
2022-09-16T16:46:09.912Z,99708.72
2022-09-16T16:48:39.590Z,99738.75
2022-09-16T16:51:11.248Z,99751.59
2022-09-16T16:53:39.920Z,99754.59
2022-09-16T16:56:14.461Z,99781.41
2022-09-16T16:58:43.886Z,99785.59
2022-09-16T17:01:13.895Z,99795.22
2022-09-16T17:03:44.881Z,99794.91
2022-09-16T17:06:13.182Z,99788.34
2022-09-16T17:08:40.883Z,99790.50
2022-09-16T17:11:10.223Z,99769.19
2022-09-16T17:13:38.343Z,99747.19
2022-09-16T17:16:06.949Z,99728.19
2022-09-16T17:18:36.119Z,99744.59
2022-09-16T17:21:06.855Z,99720.59
2022-09-16T17:23:35.068Z,99712.47
2022-09-16T17:26:03.262Z,99706.50
2022-09-16T17:28:31.029Z,99703.63
2022-09-16T17:30:59.056Z,99642.75
2022-09-16T17:33:27.133Z,99614.91
2022-09-16T17:36:01.751Z,99564.00
2022-09-16T17:38:31.369Z,99533.50
2022-09-16T17:41:03.716Z,99494.81
2022-09-16T17:43:32.642Z,99486.59
2022-09-16T17:46:01.027Z,99461.44
2022-09-16T17:48:29.366Z,99450.00
2022-09-16T17:50:57.746Z,99447.47
2022-09-16T17:53:25.988Z,99450.75
2022-09-16T17:56:03.710Z,99461.38
2022-09-16T17:58:32.256Z,99467.75
2022-09-16T18:01:08.574Z,99480.22
2022-09-16T18:03:36.889Z,99489.50
2022-09-16T18:06:11.635Z,99510.34
2022-09-16T18:08:39.827Z,99500.97
2022-09-16T18:11:10.352Z,99495.16
2022-09-16T18:13:38.533Z,99484.06
2022-09-16T18:16:08.111Z,99477.88
2022-09-16T18:18:36.673Z,99464.69
2022-09-16T18:21:06.066Z,99459.66
2022-09-16T18:23:34.126Z,99458.34
2022-09-16T18:26:04.818Z,99460.78
2022-09-16T18:28:51.679Z,99467.88
2022-09-16T18:31:24.435Z,99465.91
2022-09-16T18:33:53.061Z,99477.13
2022-09-16T18:36:22.563Z,99476.03
2022-09-16T18:38:52.206Z,99485.03
2022-09-16T18:41:21.408Z,99496.44
2022-09-16T18:43:55.557Z,99520.88
2022-09-16T18:46:26.771Z,99530.28
2022-09-16T18:48:55.318Z,99529.97
2022-09-16T18:51:25.624Z,99540.53
2022-09-16T18:53:55.597Z,99542.38
2022-09-16T18:56:24.768Z,99557.03
2022-09-16T18:59:20.047Z,99561.19
2022-09-16T19:01:43.894Z,99565.81
2022-09-16T19:04:13.178Z,99578.34
2022-09-16T19:06:43.792Z,99607.09
2022-09-16T19:09:13.152Z,99613.47
2022-09-16T19:11:41.624Z,99639.06
2022-09-16T19:14:14.069Z,99643.09
2022-09-16T19:16:42.997Z,99671.72
2022-09-16T19:19:13.413Z,99695.00
2022-09-16T19:21:42.043Z,99723.28
2022-09-16T19:24:14.001Z,99739.75
2022-09-16T19:26:43.574Z,99749.69
2022-09-16T19:29:14.206Z,99762.56
2022-09-16T19:31:43.782Z,99796.78
2022-09-16T19:34:13.045Z,99813.63
2022-09-16T19:36:41.337Z,99846.38
2022-09-16T19:39:10.381Z,99887.56
2022-09-16T19:41:43.026Z,99905.59
2022-09-16T19:44:14.969Z,99924.06
2022-09-16T19:46:44.757Z,99933.69
2022-09-16T19:49:16.855Z,99955.59
2022-09-16T19:51:45.285Z,99973.47
2022-09-16T19:54:13.179Z,99997.84
2022-09-16T19:56:41.056Z,100016.75
2022-09-16T19:59:09.319Z,100024.88
2022-09-16T20:01:38.530Z,100041.97
2022-09-16T20:04:08.510Z,100049.91
2022-09-16T20:06:38.806Z,100069.16
2022-09-16T20:09:11.520Z,100077.09
2022-09-16T20:11:40.639Z,100092.84
2022-09-16T20:14:17.696Z,100094.50
2022-09-16T20:16:47.903Z,100102.66
2022-09-16T20:19:16.855Z,100122.56
2022-09-16T20:21:45.102Z,100124.38
2022-09-16T20:24:18.297Z,100134.47
2022-09-16T20:26:46.400Z,100137.97
2022-09-16T20:29:14.283Z,100133.66
2022-09-16T20:31:42.145Z,100138.13
2022-09-16T20:34:13.719Z,100150.25
2022-09-16T20:36:41.522Z,100148.75
2022-09-16T20:39:10.496Z,100140.28
2022-09-16T20:41:39.748Z,100154.88
2022-09-16T20:44:07.506Z,100163.47
2022-09-16T20:46:36.689Z,100171.63
2022-09-16T20:49:06.530Z,100178.91
2022-09-16T20:51:36.005Z,100178.41
2022-09-16T20:54:07.743Z,100185.03
2022-09-16T20:56:39.094Z,100185.22
2022-09-16T20:59:08.229Z,100187.53
2022-09-16T21:01:37.751Z,100199.63
2022-09-16T21:04:07.264Z,100210.09
2022-09-16T21:06:37.494Z,100205.59
2022-09-16T21:09:07.544Z,100207.41
2022-09-16T21:11:35.905Z,100218.22
2022-09-16T21:14:06.388Z,100227.31
2022-09-16T21:16:36.806Z,100230.44
2022-09-16T21:19:09.301Z,100245.16
2022-09-16T21:21:40.539Z,100244.63
2022-09-16T21:24:09.770Z,100245.53
2022-09-16T21:26:38.986Z,100251.72
2022-09-16T21:29:10.863Z,100253.50
2022-09-16T21:31:40.927Z,100257.91
2022-09-16T21:34:12.799Z,100262.78
2022-09-16T21:36:42.086Z,100261.47
2022-09-16T21:39:10.739Z,100263.13
2022-09-16T21:41:38.508Z,100267.56
2022-09-16T21:44:06.887Z,100259.41
2022-09-16T21:46:39.548Z,100266.06
2022-09-16T21:49:07.748Z,100270.38
2022-09-16T21:51:38.701Z,100272.00
2022-09-16T21:54:09.190Z,100280.78
2022-09-16T21:56:39.052Z,100286.44
2022-09-16T21:59:07.328Z,100281.47
2022-09-16T22:01:36.479Z,100289.19
2022-09-16T22:04:05.998Z,100291.13
2022-09-16T22:06:34.641Z,100296.78
2022-09-16T22:09:03.680Z,100307.50
2022-09-16T22:11:33.802Z,100310.19
2022-09-16T22:14:01.887Z,100313.41
2022-09-16T22:16:31.604Z,100323.69
2022-09-16T22:19:01.688Z,100313.31
2022-09-16T22:21:31.160Z,100317.97
2022-09-16T22:23:59.714Z,100325.28
2022-09-16T22:26:28.335Z,100323.56
2022-09-16T22:28:57.721Z,100318.63
2022-09-16T22:31:27.046Z,100310.47
2022-09-16T22:33:56.435Z,100322.22
2022-09-16T22:36:26.251Z,100317.78
2022-09-16T22:38:55.529Z,100326.94
2022-09-16T22:41:24.818Z,100322.91
2022-09-16T22:43:54.087Z,100332.06
2022-09-16T22:46:24.989Z,100333.06
2022-09-16T22:48:53.534Z,100343.75
2022-09-16T22:51:21.520Z,100348.69
2022-09-16T22:53:50.243Z,100340.44
2022-09-16T22:56:19.874Z,100345.63
2022-09-16T22:58:51.874Z,100343.69
2022-09-16T23:01:21.621Z,100347.72
2022-09-16T23:03:54.371Z,100351.16
2022-09-16T23:06:24.292Z,100351.41
2022-09-16T23:08:52.953Z,100353.75
2022-09-16T23:11:23.645Z,100351.47
2022-09-16T23:13:52.767Z,100354.81
2022-09-16T23:16:23.008Z,100352.09
2022-09-16T23:18:52.195Z,100357.63
2022-09-16T23:21:21.821Z,100358.81
2022-09-16T23:23:51.713Z,100360.22
2022-09-16T23:26:21.998Z,100362.38
2022-09-16T23:28:53.146Z,100372.19
2022-09-16T23:31:23.186Z,100379.63
2022-09-16T23:33:52.517Z,100374.34
2022-09-16T23:36:21.079Z,100367.50
2022-09-16T23:38:49.143Z,100364.94
2022-09-16T23:41:20.197Z,100375.56
2022-09-16T23:43:49.154Z,100366.28
2022-09-16T23:46:19.565Z,100373.91
2022-09-16T23:48:47.947Z,100355.66
2022-09-16T23:51:16.994Z,100365.28
2022-09-16T23:53:45.049Z,100369.44
2022-09-16T23:56:15.005Z,100385.38
2022-09-16T23:58:43.345Z,100392.00
